Latest Weather Observations for Scoresby

IDV60901

Issued at 5:11 pm EDT Sunday 7 February 2016 (issued every 10 minutes, with the page automatically refreshed every 10 minutes)

About weather observations | Map of Melbourne area stations | Latest observations for Melbourne area | Other Formats
Station Details ID: 086104 Name: SCORESBY RESEARCH INSTITUTE Lat: -37.87 Lon: 145.26 Height: 80.0 m
Data from the previous 72 hours. | See also: Recent months at Scoresby
Date/Time
EDT
Tmp

°C
App
Tmp
°C
Dew
Point
°C
Rel
Hum
%
Delta-T

°C
Wind Press
QNH
hPa
Press
MSL
hPa
Rain
since
9 am
mm
Dir
 
Spd
km/h
Gust
km/h
Spd
kts
Gust
kts
07/05:00pm 31.6 30.2 13.4 33 11.0 S 13 24 7 13 - - 0.0
07/04:30pm 31.5 30.6 13.7 33 10.8 S 11 19 6 10 - - 0.0
07/04:00pm 31.3 30.9 16.1 40 9.5 S 13 20 7 11 - - 0.0
07/03:30pm 31.4 31.2 16.6 41 9.3 SSW 13 20 7 11 - - 0.0
07/03:00pm 30.5 30.0 15.8 41 9.1 S 13 20 7 11 - - 0.0
07/02:30pm 31.3 30.7 15.7 39 9.7 SW 13 24 7 13 - - 0.0
07/02:00pm 31.6 32.3 15.5 37 10.0 SSW 6 13 3 7 - - 0.0
07/01:30pm 31.4 32.8 18.7 46 8.3 SSW 9 19 5 10 - - 0.0
07/01:00pm 31.1 30.8 14.3 36 10.2 SW 9 17 5 9 - - 0.0
07/12:30pm 30.4 30.3 13.2 35 10.3 NW 6 11 3 6 - - 0.0
07/12:00pm 30.2 30.4 13.0 34 10.2 WSW 4 15 2 8 - - 0.0
07/11:30am 29.6 29.7 13.8 38 9.5 NW 6 17 3 9 - - 0.0
07/11:00am 28.9 29.4 15.1 43 8.4 WNW 6 15 3 8 - - 0.0
07/10:30am 27.6 28.3 15.6 48 7.4 N 6 11 3 6 - - 0.0
07/10:00am 26.2 26.6 15.3 51 6.6 N 7 15 4 8 - - 0.0
07/09:30am 24.4 24.4 14.2 53 6.0 N 7 13 4 7 - - 0.0
07/09:00am 23.5 23.1 14.2 56 5.5 N 9 15 5 8 - - 0.0
07/08:30am 22.6 22.7 14.4 60 4.8 NNE 7 13 4 7 - - 0.0
07/08:00am 20.9 21.1 14.3 66 3.9 NNE 6 7 3 4 - - 0.0
07/07:30am 18.8 19.7 13.9 73 2.8 NE 2 4 1 2 - - 0.0
07/07:00am 18.0 18.4 13.7 76 2.5 NE 4 7 2 4 - - 0.0
07/06:30am 17.8 18.3 13.9 78 2.2 NE 4 6 2 3 - - 0.0
07/06:00am 17.7 18.8 13.6 77 2.3 CALM 0 0 0 0 - - 0.0
07/05:30am 18.2 19.1 13.9 76 2.5 NNE 2 6 1 3 - - 0.0
07/05:00am 18.4 18.9 14.1 76 2.5 NNE 4 9 2 5 - - 0.0
07/04:30am 17.7 19.0 14.0 79 2.1 CALM 0 4 0 2 - - 0.0
07/04:00am 18.3 19.3 14.4 78 2.3 NNE 2 6 1 3 - - 0.0
07/03:30am 18.7 20.1 14.4 76 2.5 CALM 0 0 0 0 - - 0.0
07/03:00am 17.5 19.2 15.1 86 1.4 CALM 0 4 0 2 - - 0.0
07/02:30am 16.9 18.4 14.7 87 1.3 CALM 0 0 0 0 - - 0.0
07/02:00am 17.1 18.6 14.7 86 1.4 CALM 0 0 0 0 - - 0.0
07/01:30am 17.6 19.2 15.0 85 1.5 CALM 0 0 0 0 - - 0.0
07/01:00am 18.2 19.9 15.1 82 1.8 CALM 0 0 0 0 - - 0.0
07/12:30am 18.4 20.0 14.9 80 2.0 CALM 0 0 0 0 - - 0.0
07/12:00am 19.2 20.9 15.1 77 2.4 CALM 0 0 0 0 - - 0.0
 
Date/Time
EDT
Tmp

°C
App
Tmp
°C
Dew
Point
°C
Rel
Hum
%
Delta-T

°C
Wind Press
QNH
hPa
Press
MSL
hPa
Rain
since
9 am
mm
Dir
 
Spd
km/h
Gust
km/h
Spd
kts
Gust
kts
06/11:30pm 19.4 20.9 14.6 74 2.8 CALM 0 0 0 0 - - 0.0
06/11:00pm 20.3 21.9 14.9 71 3.2 CALM 0 0 0 0 - - 0.0
06/10:30pm 21.4 23.0 14.8 66 3.9 CALM 0 0 0 0 - - 0.0
06/10:00pm 23.0 24.4 14.3 58 5.1 CALM 0 0 0 0 - - 0.0
06/09:30pm 22.6 24.2 15.0 62 4.5 CALM 0 0 0 0 - - 0.0
06/09:00pm 24.0 25.3 14.1 54 5.8 CALM 0 2 0 1 - - 0.0
06/08:30pm 27.1 27.0 13.4 42 8.1 E 6 11 3 6 - - 0.0
06/08:00pm 28.4 28.0 13.1 39 9.1 ESE 7 13 4 7 - - 0.0
06/07:30pm 29.1 28.4 13.3 37 9.4 ESE 9 19 5 10 - - 0.0
06/07:00pm 29.6 28.8 12.9 35 9.9 ESE 9 17 5 9 - - 0.0
06/06:30pm 30.0 29.0 13.3 36 10.0 ESE 11 17 6 9 - - 0.0
06/06:00pm 30.3 28.9 12.2 33 10.6 SE 11 17 6 9 - - 0.0
06/05:30pm 30.3 28.9 12.2 33 10.6 SE 11 22 6 12 - - 0.0
06/05:00pm 30.4 28.5 11.9 32 10.8 SSE 13 22 7 12 - - 0.0
06/04:30pm 30.3 29.1 12.7 34 10.4 SE 11 20 6 11 - - 0.0
06/04:00pm 31.0 30.9 13.3 34 10.6 SE 6 15 3 8 - - 0.0
06/03:30pm 30.9 30.6 13.2 34 10.6 SSW 7 19 4 10 - - 0.0
06/03:00pm 29.9 29.3 12.3 33 10.3 ESE 7 15 4 8 - - 0.0
06/02:30pm 30.1 29.9 13.0 35 10.2 SSE 6 13 3 7 - - 0.0
06/02:00pm 29.8 29.9 12.7 35 10.1 SSW 4 11 2 6 - - 0.0
06/01:30pm 29.5 30.3 13.7 38 9.5 N 2 6 1 3 - - 0.0
06/01:00pm 28.2 28.0 12.9 38 9.0 E 6 13 3 7 - - 0.0
06/12:30pm 27.3 27.5 12.9 41 8.5 NW 4 9 2 5 - - 0.0
06/12:00pm 26.6 26.8 13.0 43 8.0 NNE 4 9 2 5 - - 0.0
06/11:30am 26.4 26.6 14.2 47 7.3 NNW 6 13 3 7 - - 0.0
06/11:00am 25.9 26.7 14.7 50 6.7 N 4 9 2 5 - - 0.0
06/10:30am 24.5 24.3 14.6 54 5.9 N 9 17 5 9 - - 0.0
06/10:00am 23.3 22.4 13.8 55 5.6 N 11 17 6 9 - - 0.0
06/09:30am 22.5 21.6 13.8 58 5.1 NNE 11 17 6 9 - - 0.0
06/09:00am 21.3 20.9 14.2 64 4.1 N 9 15 5 8 - - 0.0
06/08:30am 20.1 20.1 14.2 69 3.4 N 7 13 4 7 - - 0.0
06/08:00am 18.1 18.3 14.2 78 2.2 NNW 6 9 3 5 - - 0.0
06/07:30am 16.4 16.7 13.5 83 1.6 N 4 7 2 4 - - 0.0
06/07:00am 16.0 16.0 13.5 85 1.4 N 6 9 3 5 - - 0.0
06/06:30am 15.5 15.4 13.2 86 1.3 N 6 7 3 4 - - 0.0
06/06:00am 15.6 15.5 13.3 86 1.3 NNE 6 9 3 5 - - 0.0
06/05:30am 15.3 15.3 13.5 89 1.0 NNE 6 9 3 5 - - 0.0
06/05:00am 13.9 14.1 13.0 94 0.5 NNE 4 6 2 3 - - 0.0
06/04:30am 13.6 14.4 12.5 93 0.6 CALM 0 0 0 0 - - 0.0
06/04:00am 13.7 14.5 12.6 93 0.6 CALM 0 0 0 0 - - 0.0
06/03:30am 13.9 14.8 12.8 93 0.6 CALM 0 0 0 0 - - 0.0
06/03:00am 13.9 14.7 12.6 92 0.7 CALM 0 0 0 0 - - 0.0
06/02:30am 14.1 14.9 12.7 91 0.8 CALM 0 0 0 0 - - 0.0
06/02:00am 14.4 15.3 12.8 90 0.9 CALM 0 0 0 0 - - 0.0
06/01:30am 14.7 15.6 12.9 89 1.0 CALM 0 0 0 0 - - 0.0
06/01:00am 15.1 16.0 12.8 86 1.3 CALM 0 0 0 0 - - 0.0
06/12:30am 16.0 16.8 12.6 80 1.9 CALM 0 0 0 0 - - 0.0
06/12:00am 17.2 18.1 12.9 76 2.4 CALM 0 2 0 1 - - 0.0
 
Date/Time
EDT
Tmp

°C
App
Tmp
°C
Dew
Point
°C
Rel
Hum
%
Delta-T

°C
Wind Press
QNH
hPa
Press
MSL
hPa
Rain
since
9 am
mm
Dir
 
Spd
km/h
Gust
km/h
Spd
kts
Gust
kts
05/11:30pm 18.3 18.9 13.0 71 3.0 SE 2 6 1 3 - - 0.0
05/11:00pm 19.2 18.9 13.2 68 3.4 SE 7 11 4 6 - - 0.0
05/10:30pm 19.8 19.5 13.3 66 3.7 SSE 7 13 4 7 - - 0.0
05/10:00pm 20.6 19.9 13.3 63 4.2 SE 9 15 5 8 - - 0.0
05/09:30pm 20.9 20.3 13.4 62 4.3 SSE 9 17 5 9 - - 0.0
05/09:00pm 21.5 21.2 13.4 60 4.7 SSE 7 15 4 8 - - 0.0
05/08:30pm 22.3 21.3 13.4 57 5.2 SSE 11 20 6 11 - - 0.0
05/08:00pm 23.6 22.1 13.2 52 6.0 SE 13 22 7 12 - - 0.0
05/07:30pm 24.8 23.9 13.7 50 6.5 SSE 11 24 6 13 - - 0.0
05/07:00pm 25.7 24.5 13.9 48 7.0 SE 13 20 7 11 - - 0.0
05/06:30pm 26.6 24.9 13.7 45 7.6 SE 15 22 8 12 - - 0.0
05/06:00pm 27.5 25.3 13.4 41 8.4 SSE 17 26 9 14 - - 0.0
05/05:30pm 27.6 25.6 12.8 40 8.7 SE 15 26 8 14 - - 0.0
05/05:00pm 27.6 25.1 12.4 39 8.9 SE 17 30 9 16 - - 0.0
05/04:30pm 28.2 26.3 12.9 38 9.0 SE 15 28 8 15 - - 0.0
05/04:00pm 28.1 26.4 12.5 38 9.1 SE 13 20 7 11 - - 0.0
05/03:30pm 28.5 27.4 13.2 39 9.1 SSE 11 20 6 11 - - 0.0
05/03:00pm 28.0 26.7 11.1 35 9.7 SE 9 19 5 10 - - 0.0
05/02:30pm 27.6 26.6 10.3 34 9.7 SSE 6 17 3 9 - - 0.0
05/02:00pm 27.6 26.7 11.2 36 9.4 SSE 7 20 4 11 - - 0.0
05/01:30pm 26.3 24.9 10.9 38 8.7 SSW 9 17 5 9 - - 0.0
05/01:00pm 25.9 25.1 11.6 40 8.2 SSE 7 11 4 6 - - 0.0
05/12:30pm 24.8 25.1 12.1 45 7.3 ENE 2 9 1 5 - - 0.0
05/12:00pm 23.6 23.9 13.5 53 5.9 ENE 4 9 2 5 - - 0.0
05/11:30am 22.6 23.3 13.4 56 5.3 WSW 2 6 1 3 - - 0.0
05/11:00am 21.5 22.1 13.2 59 4.8 N 2 7 1 4 - - 0.0
05/10:30am 20.3 20.8 12.8 62 4.3 NNE 2 9 1 5 - - 0.0
05/10:00am 19.6 20.7 13.5 68 3.5 CALM 0 4 0 2 - - 0.0
05/09:30am 18.6 18.8 13.2 71 3.1 ENE 4 7 2 4 - - 0.0
05/09:00am 17.1 18.2 13.4 79 2.1 CALM 0 2 0 1 - - 0.0
05/08:30am 16.0 16.3 13.5 85 1.4 N 4 6 2 3 - - 0.0
05/08:00am 15.9 17.3 14.3 90 0.9 CALM 0 4 0 2 - - 0.0
05/07:30am 13.9 14.4 12.8 93 0.6 NE 2 6 1 3 - - 0.0
05/07:00am 13.4 13.6 12.0 91 0.8 ENE 2 6 1 3 - - 0.0
05/06:30am 13.8 14.5 12.2 90 0.9 CALM 0 4 0 2 - - 0.0
05/06:00am 14.2 13.9 12.8 91 0.8 SSE 6 11 3 6 - - 0.0
05/05:30am 14.5 14.2 13.2 92 0.7 S 7 15 4 8 - - 0.0
05/05:00am 14.6 14.4 13.5 93 0.6 SE 7 11 4 6 - - 0.0
05/04:30am 14.7 14.7 13.6 93 0.6 SSE 6 11 3 6 - - 0.0
05/04:00am 15.0 14.8 13.7 92 0.7 SSE 7 13 4 7 - - 0.0
05/03:30am 15.3 15.7 13.8 91 0.8 SSE 4 9 2 5 - - 0.0
05/03:00am 15.8 15.9 14.0 89 1.0 SSE 6 13 3 7 - - 0.0
05/02:30am 16.4 16.4 14.2 87 1.3 SSE 7 15 4 8 - - 0.0
05/02:00am 16.8 17.1 14.4 86 1.4 SSE 6 9 3 5 - - 0.0
05/01:30am 17.1 17.2 14.4 84 1.6 S 7 13 4 7 - - 0.0
05/01:00am 17.5 17.2 14.4 82 1.8 S 9 17 5 9 - - 0.0
05/12:30am 17.6 17.6 14.3 81 1.9 S 7 11 4 6 - - 0.0
05/12:00am 17.6 18.2 14.3 81 1.9 S 4 9 2 5 - - 0.0
 
Date/Time
EDT
Tmp

°C
App
Tmp
°C
Dew
Point
°C
Rel
Hum
%
Delta-T

°C
Wind Press
QNH
hPa
Press
MSL
hPa
Rain
since
9 am
mm
Dir
 
Spd
km/h
Gust
km/h
Spd
kts
Gust
kts
04/11:30pm 17.6 17.5 13.9 79 2.1 S 7 13 4 7 - - 0.0
04/11:00pm 17.6 17.1 13.9 79 2.1 SSE 9 15 5 8 - - 0.0
04/10:30pm 17.6 17.1 13.7 78 2.2 SSE 9 15 5 8 - - 0.0
04/10:00pm 17.6 17.0 13.5 77 2.3 SSE 9 17 5 9 - - 0.0
04/09:30pm 17.5 16.4 13.0 75 2.5 SSE 11 20 6 11 - - 0.0
04/09:00pm 17.8 16.7 13.1 74 2.6 SSE 11 22 6 12 - - 0.0
04/08:30pm 18.1 16.1 12.8 71 3.0 SSE 15 26 8 14 - - 0.0
04/08:00pm 18.8 16.7 12.5 67 3.5 SE 15 24 8 13 - - 0.0
04/07:30pm 19.7 17.7 12.7 64 4.0 SE 15 22 8 12 - - 0.0
04/07:00pm 21.0 19.9 13.2 61 4.5 SSE 11 26 6 14 - - 0.0
04/06:30pm 21.4 20.3 13.1 59 4.8 SSE 11 17 6 9 - - 0.0
04/06:00pm 21.5 20.0 13.2 59 4.8 S 13 24 7 13 - - 0.0
04/05:30pm 21.7 20.7 13.3 59 4.8 S 11 20 6 11 - - 0.0

Latest Capital City Observations: Canberra | Sydney | Melbourne | Brisbane | Adelaide | Perth | Hobart | Darwin

Other Formats:

Comma delimited format used in spreadsheet applications
http://www.bom.gov.au/fwo/IDV60901/IDV60901.95867.axf

JavaScript Object Notation format (JSON) in row-major order
http://www.bom.gov.au/fwo/IDV60901/IDV60901.95867.json